Skip Navigation LinksHome page > Weather > Current weather Skip Navigation Links

Current Weather

Chicago Executive, Wheeling, Ill.

For information only: do not use for flight planning or navigation.
Latest weather
Observation time Saturday, July 20, 2019 10:52 AM CDT
Local time Saturday, July 20, 2019 11:12 AM CDT
Flight conditions Visual Meteorological Conditions
Winds
Wind direction South-Southwest (200°)
Wind speed 12 mph
Visibility 10 mi.
Sky condition
Ceiling unlimited
Cloud layer few clouds 2,400 ft.
Temperature 90°F
Dewpoint 76°F
Altimeter 29.86 in.Hg
Derived measurements
Relative humidity 64%
Heat index 102°F
Density altitude 3087 ft.
Sea-level pressure 29.83 in.Hg
Remarks
Automated weather observing station with precipitation discriminator.
METAR KPWK 201552Z 20010KT 10SM FEW024 32/24 A2986 RMK AO2 SLP103 T03220244

Settings

Location code

InnerDrive.Weather 4.0.6770.0 Release CLR 4.0.30319.42000
Copyright ©2018 Inner Drive Technology. All rights reserved. Portions Copyright ©1986-2018 David Braverman.

Find weather

Site navigation


Skip Navigation Links

Place info

Page info

PayPal - The safer, easier way to pay online!

Return home.

Copyright ©2019 Inner Drive Technology. Purveyors of fine, hand-crafted computer software. Page printed 2019-07-20T16:12:28 UTC.